sensor_id;sensor_type;location;lat;lon;timestamp;P1;durP1;ratioP1;P2;durP2;ratioP2
23555;SDS011;11956;53.184;8.578;2023-04-25T00:01:36;25.75;;;5.18;;
23555;SDS011;11956;53.184;8.578;2023-04-25T00:04:37;26.10;;;4.55;;
23555;SDS011;11956;53.184;8.578;2023-04-25T00:07:38;24.60;;;4.85;;
23555;SDS011;11956;53.184;8.578;2023-04-25T00:10:41;34.38;;;5.03;;
23555;SDS011;11956;53.184;8.578;2023-04-25T00:13:42;24.88;;;4.53;;
23555;SDS011;11956;53.184;8.578;2023-04-25T00:16:43;27.92;;;4.70;;
23555;SDS011;11956;53.184;8.578;2023-04-25T00:19:44;25.83;;;4.65;;
23555;SDS011;11956;53.184;8.578;2023-04-25T00:22:46;36.75;;;5.40;;
23555;SDS011;11956;53.184;8.578;2023-04-25T00:25:48;22.73;;;5.28;;
23555;SDS011;11956;53.184;8.578;2023-04-25T00:28:50;27.80;;;5.28;;
23555;SDS011;11956;53.184;8.578;2023-04-25T00:31:51;33.88;;;5.68;;
23555;SDS011;11956;53.184;8.578;2023-04-25T00:34:52;29.48;;;5.75;;
23555;SDS011;11956;53.184;8.578;2023-04-25T00:37:53;32.70;;;7.25;;
23555;SDS011;11956;53.184;8.578;2023-04-25T00:40:55;25.95;;;6.18;;
23555;SDS011;11956;53.184;8.578;2023-04-25T00:43:56;34.60;;;7.72;;
23555;SDS011;11956;53.184;8.578;2023-04-25T00:47:00;24.13;;;5.80;;
23555;SDS011;11956;53.184;8.578;2023-04-25T00:50:02;28.75;;;5.68;;
23555;SDS011;11956;53.184;8.578;2023-04-25T00:53:04;20.73;;;4.60;;
23555;SDS011;11956;53.184;8.578;2023-04-25T00:56:05;27.20;;;4.85;;
23555;SDS011;11956;53.184;8.578;2023-04-25T00:59:06;22.05;;;5.25;;
23555;SDS011;11956;53.184;8.578;2023-04-25T01:02:07;27.30;;;5.15;;
23555;SDS011;11956;53.184;8.578;2023-04-25T01:05:09;34.03;;;5.55;;
23555;SDS011;11956;53.184;8.578;2023-04-25T01:08:10;28.98;;;5.57;;
23555;SDS011;11956;53.184;8.578;2023-04-25T01:11:11;27.98;;;5.55;;
23555;SDS011;11956;53.184;8.578;2023-04-25T01:14:12;29.10;;;5.70;;
23555;SDS011;11956;53.184;8.578;2023-04-25T01:17:13;29.27;;;5.50;;
23555;SDS011;11956;53.184;8.578;2023-04-25T01:20:14;29.08;;;5.80;;
23555;SDS011;11956;53.184;8.578;2023-04-25T01:23:16;27.27;;;5.85;;
23555;SDS011;11956;53.184;8.578;2023-04-25T01:26:20;33.45;;;6.28;;
23555;SDS011;11956;53.184;8.578;2023-04-25T01:29:23;31.65;;;5.78;;
23555;SDS011;11956;53.184;8.578;2023-04-25T01:32:24;31.75;;;5.43;;
23555;SDS011;11956;53.184;8.578;2023-04-25T01:35:26;30.95;;;5.68;;
23555;SDS011;11956;53.184;8.578;2023-04-25T01:38:28;26.75;;;5.50;;
23555;SDS011;11956;53.184;8.578;2023-04-25T01:41:29;37.97;;;5.75;;
23555;SDS011;11956;53.184;8.578;2023-04-25T01:44:30;33.00;;;6.28;;
23555;SDS011;11956;53.184;8.578;2023-04-25T01:47:31;22.10;;;4.68;;
23555;SDS011;11956;53.184;8.578;2023-04-25T01:50:32;25.48;;;5.03;;
23555;SDS011;11956;53.184;8.578;2023-04-25T01:53:33;29.45;;;4.97;;
23555;SDS011;11956;53.184;8.578;2023-04-25T01:56:37;26.43;;;5.37;;
23555;SDS011;11956;53.184;8.578;2023-04-25T01:59:41;28.23;;;5.07;;
23555;SDS011;11956;53.184;8.578;2023-04-25T02:02:57;23.50;;;4.47;;
23555;SDS011;11956;53.184;8.578;2023-04-25T02:06:03;27.90;;;4.88;;
23555;SDS011;11956;53.184;8.578;2023-04-25T02:09:06;28.70;;;4.93;;
23555;SDS011;11956;53.184;8.578;2023-04-25T02:12:09;29.88;;;5.60;;
23555;SDS011;11956;53.184;8.578;2023-04-25T02:15:33;32.90;;;5.38;;
23555;SDS011;11956;53.184;8.578;2023-04-25T02:18:44;29.48;;;5.30;;
23555;SDS011;11956;53.184;8.578;2023-04-25T02:21:45;25.77;;;4.60;;
23555;SDS011;11956;53.184;8.578;2023-04-25T02:24:46;32.83;;;5.75;;
23555;SDS011;11956;53.184;8.578;2023-04-25T02:27:48;29.60;;;5.00;;
23555;SDS011;11956;53.184;8.578;2023-04-25T02:30:49;25.77;;;5.15;;
23555;SDS011;11956;53.184;8.578;2023-04-25T02:33:50;26.60;;;5.75;;
23555;SDS011;11956;53.184;8.578;2023-04-25T02:36:51;34.97;;;5.47;;
23555;SDS011;11956;53.184;8.578;2023-04-25T02:39:52;28.35;;;5.45;;
23555;SDS011;11956;53.184;8.578;2023-04-25T02:42:53;27.55;;;5.97;;
23555;SDS011;11956;53.184;8.578;2023-04-25T02:45:54;22.90;;;4.70;;
23555;SDS011;11956;53.184;8.578;2023-04-25T02:48:55;27.00;;;4.40;;
23555;SDS011;11956;53.184;8.578;2023-04-25T02:51:56;25.83;;;5.07;;
23555;SDS011;11956;53.184;8.578;2023-04-25T02:54:57;33.63;;;5.05;;
23555;SDS011;11956;53.184;8.578;2023-04-25T02:57:59;29.17;;;4.20;;
23555;SDS011;11956;53.184;8.578;2023-04-25T03:01:26;24.20;;;4.53;;
23555;SDS011;11956;53.184;8.578;2023-04-25T03:04:27;19.88;;;4.05;;
23555;SDS011;11956;53.184;8.578;2023-04-25T03:07:29;27.48;;;4.30;;
23555;SDS011;11956;53.184;8.578;2023-04-25T03:10:29;24.67;;;4.50;;
23555;SDS011;11956;53.184;8.578;2023-04-25T03:13:34;26.20;;;4.47;;
23555;SDS011;11956;53.184;8.578;2023-04-25T03:16:36;24.63;;;4.47;;
23555;SDS011;11956;53.184;8.578;2023-04-25T03:19:36;29.08;;;4.20;;
23555;SDS011;11956;53.184;8.578;2023-04-25T03:22:37;21.67;;;4.07;;
23555;SDS011;11956;53.184;8.578;2023-04-25T03:25:38;23.30;;;3.80;;
23555;SDS011;11956;53.184;8.578;2023-04-25T03:28:39;26.77;;;4.97;;
23555;SDS011;11956;53.184;8.578;2023-04-25T03:31:41;24.67;;;3.60;;
23555;SDS011;11956;53.184;8.578;2023-04-25T03:34:43;21.80;;;3.67;;
23555;SDS011;11956;53.184;8.578;2023-04-25T03:37:43;22.58;;;3.45;;
23555;SDS011;11956;53.184;8.578;2023-04-25T03:40:53;19.05;;;3.15;;
23555;SDS011;11956;53.184;8.578;2023-04-25T03:44:18;23.40;;;3.95;;
23555;SDS011;11956;53.184;8.578;2023-04-25T03:47:19;21.35;;;3.78;;
23555;SDS011;11956;53.184;8.578;2023-04-25T03:50:21;21.40;;;3.50;;
23555;SDS011;11956;53.184;8.578;2023-04-25T03:53:22;16.05;;;3.50;;
23555;SDS011;11956;53.184;8.578;2023-04-25T03:56:42;19.10;;;3.35;;
23555;SDS011;11956;53.184;8.578;2023-04-25T03:59:51;15.38;;;3.30;;
23555;SDS011;11956;53.184;8.578;2023-04-25T04:02:52;19.77;;;3.72;;
23555;SDS011;11956;53.184;8.578;2023-04-25T04:05:53;18.40;;;3.40;;
23555;SDS011;11956;53.184;8.578;2023-04-25T04:08:54;16.42;;;3.42;;
23555;SDS011;11956;53.184;8.578;2023-04-25T04:11:57;18.03;;;3.47;;
23555;SDS011;11956;53.184;8.578;2023-04-25T04:14:58;16.83;;;3.08;;
23555;SDS011;11956;53.184;8.578;2023-04-25T04:18:00;18.08;;;3.55;;
23555;SDS011;11956;53.184;8.578;2023-04-25T04:21:03;15.10;;;3.20;;
23555;SDS011;11956;53.184;8.578;2023-04-25T04:24:07;18.90;;;2.90;;
23555;SDS011;11956;53.184;8.578;2023-04-25T04:27:21;18.05;;;2.72;;
23555;SDS011;11956;53.184;8.578;2023-04-25T04:30:44;18.60;;;2.80;;
23555;SDS011;11956;53.184;8.578;2023-04-25T04:33:46;19.15;;;2.78;;
23555;SDS011;11956;53.184;8.578;2023-04-25T04:36:48;15.38;;;2.78;;
23555;SDS011;11956;53.184;8.578;2023-04-25T04:39:49;16.33;;;2.63;;
23555;SDS011;11956;53.184;8.578;2023-04-25T04:46:27;17.90;;;2.78;;
23555;SDS011;11956;53.184;8.578;2023-04-25T04:53:03;17.02;;;2.70;;
23555;SDS011;11956;53.184;8.578;2023-04-25T04:56:30;14.88;;;2.75;;
23555;SDS011;11956;53.184;8.578;2023-04-25T04:59:52;20.80;;;3.38;;
23555;SDS011;11956;53.184;8.578;2023-04-25T05:03:14;13.75;;;2.95;;
23555;SDS011;11956;53.184;8.578;2023-04-25T05:06:39;17.67;;;3.03;;
23555;SDS011;11956;53.184;8.578;2023-04-25T05:09:56;14.18;;;3.38;;
23555;SDS011;11956;53.184;8.578;2023-04-25T05:13:23;16.40;;;2.95;;
23555;SDS011;11956;53.184;8.578;2023-04-25T05:16:43;16.92;;;3.00;;
23555;SDS011;11956;53.184;8.578;2023-04-25T05:20:05;19.83;;;3.40;;
23555;SDS011;11956;53.184;8.578;2023-04-25T05:23:24;14.65;;;2.75;;
23555;SDS011;11956;53.184;8.578;2023-04-25T05:26:33;16.00;;;2.47;;
23555;SDS011;11956;53.184;8.578;2023-04-25T05:29:57;11.25;;;2.70;;
23555;SDS011;11956;53.184;8.578;2023-04-25T05:33:06;20.45;;;2.95;;
23555;SDS011;11956;53.184;8.578;2023-04-25T05:36:07;18.95;;;2.92;;
23555;SDS011;11956;53.184;8.578;2023-04-25T05:39:09;18.58;;;3.13;;
23555;SDS011;11956;53.184;8.578;2023-04-25T05:42:28;17.00;;;3.08;;
23555;SDS011;11956;53.184;8.578;2023-04-25T05:45:50;21.52;;;3.38;;
23555;SDS011;11956;53.184;8.578;2023-04-25T05:49:23;13.95;;;2.53;;
23555;SDS011;11956;53.184;8.578;2023-04-25T05:52:30;9.35;;;2.85;;
23555;SDS011;11956;53.184;8.578;2023-04-25T05:55:43;12.35;;;3.70;;
23555;SDS011;11956;53.184;8.578;2023-04-25T05:58:55;9.95;;;2.13;;
23555;SDS011;11956;53.184;8.578;2023-04-25T06:01:56;7.80;;;2.35;;
23555;SDS011;11956;53.184;8.578;2023-04-25T06:04:57;10.95;;;2.25;;
23555;SDS011;11956;53.184;8.578;2023-04-25T06:07:58;9.02;;;2.30;;
23555;SDS011;11956;53.184;8.578;2023-04-25T06:10:58;9.05;;;2.15;;
23555;SDS011;11956;53.184;8.578;2023-04-25T06:14:00;13.82;;;2.75;;
23555;SDS011;11956;53.184;8.578;2023-04-25T06:17:01;13.20;;;2.42;;
23555;SDS011;11956;53.184;8.578;2023-04-25T06:20:06;13.25;;;2.80;;
23555;SDS011;11956;53.184;8.578;2023-04-25T06:23:09;13.77;;;2.63;;
23555;SDS011;11956;53.184;8.578;2023-04-25T06:26:26;14.57;;;2.95;;
23555;SDS011;11956;53.184;8.578;2023-04-25T06:29:27;16.92;;;2.90;;
23555;SDS011;11956;53.184;8.578;2023-04-25T06:32:28;13.07;;;2.30;;
23555;SDS011;11956;53.184;8.578;2023-04-25T06:35:32;14.85;;;2.50;;
23555;SDS011;11956;53.184;8.578;2023-04-25T06:38:36;14.27;;;2.17;;
23555;SDS011;11956;53.184;8.578;2023-04-25T06:41:37;18.95;;;2.63;;
23555;SDS011;11956;53.184;8.578;2023-04-25T06:47:43;12.77;;;2.13;;
23555;SDS011;11956;53.184;8.578;2023-04-25T06:50:44;17.30;;;2.60;;
23555;SDS011;11956;53.184;8.578;2023-04-25T06:53:46;11.32;;;2.17;;
23555;SDS011;11956;53.184;8.578;2023-04-25T06:56:58;14.80;;;2.80;;
23555;SDS011;11956;53.184;8.578;2023-04-25T07:00:01;8.73;;;1.95;;
23555;SDS011;11956;53.184;8.578;2023-04-25T07:03:06;10.65;;;1.65;;
23555;SDS011;11956;53.184;8.578;2023-04-25T07:06:07;12.60;;;1.98;;
23555;SDS011;11956;53.184;8.578;2023-04-25T07:09:08;11.73;;;1.83;;
23555;SDS011;11956;53.184;8.578;2023-04-25T07:12:13;12.50;;;2.13;;
23555;SDS011;11956;53.184;8.578;2023-04-25T07:15:14;8.88;;;2.30;;
23555;SDS011;11956;53.184;8.578;2023-04-25T07:18:18;8.43;;;1.83;;
23555;SDS011;11956;53.184;8.578;2023-04-25T07:21:20;11.65;;;1.95;;
23555;SDS011;11956;53.184;8.578;2023-04-25T07:27:26;9.05;;;1.92;;
23555;SDS011;11956;53.184;8.578;2023-04-25T07:30:36;8.98;;;2.03;;
23555;SDS011;11956;53.184;8.578;2023-04-25T07:33:37;11.63;;;2.03;;
23555;SDS011;11956;53.184;8.578;2023-04-25T07:36:38;8.98;;;1.83;;
23555;SDS011;11956;53.184;8.578;2023-04-25T07:39:40;8.60;;;1.75;;
23555;SDS011;11956;53.184;8.578;2023-04-25T07:42:42;12.63;;;2.17;;
23555;SDS011;11956;53.184;8.578;2023-04-25T07:45:44;8.00;;;1.73;;
23555;SDS011;11956;53.184;8.578;2023-04-25T07:48:46;14.50;;;2.43;;
23555;SDS011;11956;53.184;8.578;2023-04-25T07:51:48;15.90;;;2.10;;
23555;SDS011;11956;53.184;8.578;2023-04-25T07:54:51;11.45;;;2.28;;
23555;SDS011;11956;53.184;8.578;2023-04-25T07:57:59;12.88;;;2.05;;
23555;SDS011;11956;53.184;8.578;2023-04-25T08:01:03;12.95;;;2.63;;
23555;SDS011;11956;53.184;8.578;2023-04-25T08:04:24;12.00;;;1.98;;
23555;SDS011;11956;53.184;8.578;2023-04-25T08:07:37;12.77;;;2.50;;
23555;SDS011;11956;53.184;8.578;2023-04-25T08:10:40;11.27;;;2.17;;
23555;SDS011;11956;53.184;8.578;2023-04-25T08:13:42;7.07;;;1.83;;
23555;SDS011;11956;53.184;8.578;2023-04-25T08:16:43;10.55;;;1.63;;
23555;SDS011;11956;53.184;8.578;2023-04-25T08:19:45;12.80;;;1.90;;
23555;SDS011;11956;53.184;8.578;2023-04-25T08:22:55;11.38;;;1.80;;
23555;SDS011;11956;53.184;8.578;2023-04-25T08:26:03;7.00;;;1.40;;
23555;SDS011;11956;53.184;8.578;2023-04-25T08:29:08;6.93;;;1.17;;
23555;SDS011;11956;53.184;8.578;2023-04-25T08:32:12;6.32;;;1.17;;
23555;SDS011;11956;53.184;8.578;2023-04-25T08:35:22;6.13;;;1.10;;
23555;SDS011;11956;53.184;8.578;2023-04-25T08:38:24;3.53;;;1.08;;
23555;SDS011;11956;53.184;8.578;2023-04-25T08:41:25;4.32;;;1.08;;
23555;SDS011;11956;53.184;8.578;2023-04-25T08:44:27;6.85;;;1.48;;
23555;SDS011;11956;53.184;8.578;2023-04-25T08:47:28;4.53;;;1.23;;
23555;SDS011;11956;53.184;8.578;2023-04-25T08:50:33;3.05;;;0.93;;
23555;SDS011;11956;53.184;8.578;2023-04-25T08:53:36;8.00;;;1.50;;
23555;SDS011;11956;53.184;8.578;2023-04-25T08:56:48;7.60;;;1.55;;
23555;SDS011;11956;53.184;8.578;2023-04-25T08:59:49;4.50;;;1.23;;
23555;SDS011;11956;53.184;8.578;2023-04-25T09:02:52;7.07;;;1.70;;
23555;SDS011;11956;53.184;8.578;2023-04-25T09:05:54;9.25;;;1.45;;
23555;SDS011;11956;53.184;8.578;2023-04-25T09:09:03;10.63;;;1.48;;
23555;SDS011;11956;53.184;8.578;2023-04-25T09:12:05;8.52;;;1.83;;
23555;SDS011;11956;53.184;8.578;2023-04-25T09:15:07;10.48;;;1.80;;
23555;SDS011;11956;53.184;8.578;2023-04-25T09:18:33;7.32;;;1.52;;
23555;SDS011;11956;53.184;8.578;2023-04-25T09:21:35;10.75;;;1.80;;
23555;SDS011;11956;53.184;8.578;2023-04-25T09:27:51;7.45;;;1.00;;
23555;SDS011;11956;53.184;8.578;2023-04-25T09:31:01;7.30;;;1.30;;
23555;SDS011;11956;53.184;8.578;2023-04-25T09:34:12;6.28;;;1.20;;
23555;SDS011;11956;53.184;8.578;2023-04-25T09:37:23;8.05;;;1.45;;
23555;SDS011;11956;53.184;8.578;2023-04-25T09:40:57;3.22;;;1.10;;
23555;SDS011;11956;53.184;8.578;2023-04-25T09:44:13;5.25;;;1.00;;
23555;SDS011;11956;53.184;8.578;2023-04-25T09:47:16;4.68;;;1.10;;
23555;SDS011;11956;53.184;8.578;2023-04-25T09:50:19;5.03;;;1.20;;
23555;SDS011;11956;53.184;8.578;2023-04-25T09:53:24;6.45;;;0.90;;
23555;SDS011;11956;53.184;8.578;2023-04-25T09:56:41;3.67;;;0.90;;
23555;SDS011;11956;53.184;8.578;2023-04-25T09:59:48;7.63;;;1.27;;
23555;SDS011;11956;53.184;8.578;2023-04-25T10:02:51;5.45;;;1.08;;
23555;SDS011;11956;53.184;8.578;2023-04-25T10:06:19;5.40;;;1.02;;
23555;SDS011;11956;53.184;8.578;2023-04-25T10:09:24;7.57;;;1.20;;
23555;SDS011;11956;53.184;8.578;2023-04-25T10:12:27;7.18;;;1.58;;
23555;SDS011;11956;53.184;8.578;2023-04-25T10:15:29;9.85;;;1.80;;
23555;SDS011;11956;53.184;8.578;2023-04-25T10:18:33;9.63;;;1.50;;
23555;SDS011;11956;53.184;8.578;2023-04-25T10:21:34;7.75;;;1.60;;
23555;SDS011;11956;53.184;8.578;2023-04-25T10:24:39;5.15;;;1.40;;
23555;SDS011;11956;53.184;8.578;2023-04-25T10:27:40;7.10;;;1.30;;
23555;SDS011;11956;53.184;8.578;2023-04-25T10:34:03;4.78;;;0.90;;
23555;SDS011;11956;53.184;8.578;2023-04-25T10:37:05;6.65;;;1.58;;
23555;SDS011;11956;53.184;8.578;2023-04-25T10:40:10;3.78;;;1.10;;
23555;SDS011;11956;53.184;8.578;2023-04-25T10:46:31;6.38;;;1.10;;
23555;SDS011;11956;53.184;8.578;2023-04-25T10:49:36;4.38;;;1.15;;
23555;SDS011;11956;53.184;8.578;2023-04-25T10:52:51;7.57;;;1.73;;
23555;SDS011;11956;53.184;8.578;2023-04-25T10:55:51;6.20;;;1.15;;
23555;SDS011;11956;53.184;8.578;2023-04-25T10:59:13;6.77;;;1.63;;
23555;SDS011;11956;53.184;8.578;2023-04-25T11:02:16;7.90;;;1.70;;
23555;SDS011;11956;53.184;8.578;2023-04-25T11:05:27;10.00;;;2.00;;
23555;SDS011;11956;53.184;8.578;2023-04-25T11:09:08;7.70;;;1.70;;
23555;SDS011;11956;53.184;8.578;2023-04-25T11:12:01;13.48;;;2.45;;
23555;SDS011;11956;53.184;8.578;2023-04-25T11:15:03;8.25;;;1.50;;
23555;SDS011;11956;53.184;8.578;2023-04-25T11:21:06;7.22;;;1.48;;
23555;SDS011;11956;53.184;8.578;2023-04-25T11:24:07;5.47;;;1.27;;
23555;SDS011;11956;53.184;8.578;2023-04-25T11:27:08;4.25;;;1.15;;
23555;SDS011;11956;53.184;8.578;2023-04-25T11:30:13;11.70;;;1.90;;
23555;SDS011;11956;53.184;8.578;2023-04-25T11:33:17;9.55;;;1.63;;
23555;SDS011;11956;53.184;8.578;2023-04-25T11:36:23;8.07;;;1.45;;
23555;SDS011;11956;53.184;8.578;2023-04-25T11:39:26;8.13;;;1.55;;
23555;SDS011;11956;53.184;8.578;2023-04-25T11:42:27;11.07;;;1.58;;
23555;SDS011;11956;53.184;8.578;2023-04-25T11:45:28;7.40;;;1.52;;
23555;SDS011;11956;53.184;8.578;2023-04-25T11:48:36;5.03;;;0.82;;
23555;SDS011;11956;53.184;8.578;2023-04-25T11:51:45;3.90;;;0.90;;
23555;SDS011;11956;53.184;8.578;2023-04-25T11:54:47;4.90;;;0.73;;
23555;SDS011;11956;53.184;8.578;2023-04-25T11:57:48;4.25;;;0.82;;
23555;SDS011;11956;53.184;8.578;2023-04-25T12:00:53;7.75;;;1.33;;
23555;SDS011;11956;53.184;8.578;2023-04-25T12:03:54;4.28;;;1.20;;
23555;SDS011;11956;53.184;8.578;2023-04-25T12:06:55;6.03;;;1.20;;
23555;SDS011;11956;53.184;8.578;2023-04-25T12:09:56;4.97;;;1.10;;
23555;SDS011;11956;53.184;8.578;2023-04-25T12:12:57;3.63;;;1.00;;
23555;SDS011;11956;53.184;8.578;2023-04-25T12:15:57;7.47;;;1.23;;
23555;SDS011;11956;53.184;8.578;2023-04-25T12:19:00;7.43;;;1.20;;
23555;SDS011;11956;53.184;8.578;2023-04-25T12:22:02;4.22;;;1.30;;
23555;SDS011;11956;53.184;8.578;2023-04-25T12:25:08;9.32;;;1.70;;
23555;SDS011;11956;53.184;8.578;2023-04-25T12:31:19;12.25;;;1.85;;
23555;SDS011;11956;53.184;8.578;2023-04-25T12:34:21;11.50;;;1.58;;
23555;SDS011;11956;53.184;8.578;2023-04-25T12:37:23;8.68;;;1.70;;
23555;SDS011;11956;53.184;8.578;2023-04-25T12:40:24;5.97;;;1.00;;
23555;SDS011;11956;53.184;8.578;2023-04-25T12:43:25;11.02;;;1.65;;
23555;SDS011;11956;53.184;8.578;2023-04-25T12:46:26;7.60;;;1.65;;
23555;SDS011;11956;53.184;8.578;2023-04-25T12:49:27;12.52;;;1.33;;
23555;SDS011;11956;53.184;8.578;2023-04-25T12:52:28;10.68;;;1.67;;
23555;SDS011;11956;53.184;8.578;2023-04-25T12:55:29;8.18;;;1.38;;
23555;SDS011;11956;53.184;8.578;2023-04-25T12:58:29;8.75;;;1.33;;
23555;SDS011;11956;53.184;8.578;2023-04-25T13:01:30;5.88;;;1.33;;
23555;SDS011;11956;53.184;8.578;2023-04-25T13:04:32;9.10;;;1.60;;
23555;SDS011;11956;53.184;8.578;2023-04-25T13:07:32;7.30;;;2.00;;
23555;SDS011;11956;53.184;8.578;2023-04-25T13:10:34;9.80;;;2.05;;
23555;SDS011;11956;53.184;8.578;2023-04-25T13:13:37;11.27;;;1.88;;
23555;SDS011;11956;53.184;8.578;2023-04-25T13:16:39;9.45;;;1.60;;
23555;SDS011;11956;53.184;8.578;2023-04-25T13:19:41;5.65;;;1.10;;
23555;SDS011;11956;53.184;8.578;2023-04-25T13:22:42;5.55;;;1.20;;
23555;SDS011;11956;53.184;8.578;2023-04-25T13:25:43;12.18;;;1.50;;
23555;SDS011;11956;53.184;8.578;2023-04-25T13:28:44;4.13;;;1.23;;
23555;SDS011;11956;53.184;8.578;2023-04-25T13:31:45;6.32;;;1.30;;
23555;SDS011;11956;53.184;8.578;2023-04-25T13:34:46;5.97;;;1.00;;
23555;SDS011;11956;53.184;8.578;2023-04-25T13:37:47;6.75;;;1.05;;
23555;SDS011;11956;53.184;8.578;2023-04-25T13:40:48;4.85;;;1.10;;
23555;SDS011;11956;53.184;8.578;2023-04-25T13:43:50;4.35;;;0.90;;
23555;SDS011;11956;53.184;8.578;2023-04-25T13:46:51;5.57;;;1.45;;
23555;SDS011;11956;53.184;8.578;2023-04-25T13:49:52;6.60;;;1.10;;
23555;SDS011;11956;53.184;8.578;2023-04-25T13:52:53;7.07;;;0.90;;
23555;SDS011;11956;53.184;8.578;2023-04-25T13:55:53;5.43;;;1.10;;
23555;SDS011;11956;53.184;8.578;2023-04-25T13:58:54;6.60;;;1.20;;
23555;SDS011;11956;53.184;8.578;2023-04-25T14:01:56;7.47;;;1.08;;
23555;SDS011;11956;53.184;8.578;2023-04-25T14:04:57;4.88;;;1.23;;
23555;SDS011;11956;53.184;8.578;2023-04-25T14:07:58;8.13;;;1.75;;
23555;SDS011;11956;53.184;8.578;2023-04-25T14:11:00;6.82;;;1.15;;
23555;SDS011;11956;53.184;8.578;2023-04-25T14:14:01;8.25;;;1.42;;
23555;SDS011;11956;53.184;8.578;2023-04-25T14:17:03;3.65;;;0.90;;
23555;SDS011;11956;53.184;8.578;2023-04-25T14:20:04;3.65;;;1.08;;
23555;SDS011;11956;53.184;8.578;2023-04-25T14:23:06;5.88;;;1.30;;
23555;SDS011;11956;53.184;8.578;2023-04-25T14:26:07;6.03;;;1.13;;
23555;SDS011;11956;53.184;8.578;2023-04-25T14:29:12;6.55;;;1.63;;
23555;SDS011;11956;53.184;8.578;2023-04-25T14:32:13;5.90;;;1.20;;
23555;SDS011;11956;53.184;8.578;2023-04-25T14:35:14;6.72;;;1.40;;
23555;SDS011;11956;53.184;8.578;2023-04-25T14:38:15;8.70;;;1.40;;
23555;SDS011;11956;53.184;8.578;2023-04-25T14:41:16;4.40;;;1.25;;
23555;SDS011;11956;53.184;8.578;2023-04-25T14:44:17;4.38;;;1.50;;
23555;SDS011;11956;53.184;8.578;2023-04-25T14:47:18;11.77;;;1.92;;
23555;SDS011;11956;53.184;8.578;2023-04-25T14:50:18;9.45;;;1.77;;
23555;SDS011;11956;53.184;8.578;2023-04-25T14:53:20;7.13;;;1.85;;
23555;SDS011;11956;53.184;8.578;2023-04-25T14:56:20;6.47;;;1.65;;
23555;SDS011;11956;53.184;8.578;2023-04-25T14:59:21;4.85;;;1.27;;
23555;SDS011;11956;53.184;8.578;2023-04-25T15:02:23;5.65;;;1.30;;
23555;SDS011;11956;53.184;8.578;2023-04-25T15:05:25;5.07;;;1.08;;
23555;SDS011;11956;53.184;8.578;2023-04-25T15:08:26;4.70;;;1.25;;
23555;SDS011;11956;53.184;8.578;2023-04-25T15:11:27;4.38;;;1.65;;
23555;SDS011;11956;53.184;8.578;2023-04-25T15:14:28;6.35;;;1.48;;
23555;SDS011;11956;53.184;8.578;2023-04-25T15:17:29;8.32;;;1.73;;
23555;SDS011;11956;53.184;8.578;2023-04-25T15:20:31;6.75;;;1.40;;
23555;SDS011;11956;53.184;8.578;2023-04-25T15:23:32;6.13;;;1.40;;
23555;SDS011;11956;53.184;8.578;2023-04-25T15:26:32;7.53;;;1.45;;
23555;SDS011;11956;53.184;8.578;2023-04-25T15:29:33;5.22;;;1.10;;
23555;SDS011;11956;53.184;8.578;2023-04-25T15:32:35;6.57;;;1.30;;
23555;SDS011;11956;53.184;8.578;2023-04-25T15:35:37;6.65;;;1.40;;
23555;SDS011;11956;53.184;8.578;2023-04-25T15:38:38;6.45;;;1.27;;
23555;SDS011;11956;53.184;8.578;2023-04-25T15:41:40;9.75;;;2.35;;
23555;SDS011;11956;53.184;8.578;2023-04-25T15:44:41;9.13;;;1.83;;
23555;SDS011;11956;53.184;8.578;2023-04-25T15:47:42;6.72;;;1.20;;
23555;SDS011;11956;53.184;8.578;2023-04-25T15:50:43;7.25;;;1.88;;
23555;SDS011;11956;53.184;8.578;2023-04-25T15:53:45;12.25;;;1.55;;
23555;SDS011;11956;53.184;8.578;2023-04-25T15:56:46;9.25;;;1.50;;
23555;SDS011;11956;53.184;8.578;2023-04-25T15:59:47;10.50;;;2.00;;
23555;SDS011;11956;53.184;8.578;2023-04-25T16:02:49;5.07;;;1.30;;
23555;SDS011;11956;53.184;8.578;2023-04-25T16:05:50;9.40;;;1.25;;
23555;SDS011;11956;53.184;8.578;2023-04-25T16:08:52;5.55;;;1.00;;
23555;SDS011;11956;53.184;8.578;2023-04-25T16:11:54;7.05;;;1.20;;
23555;SDS011;11956;53.184;8.578;2023-04-25T16:14:55;6.10;;;1.23;;
23555;SDS011;11956;53.184;8.578;2023-04-25T16:17:57;8.40;;;1.30;;
23555;SDS011;11956;53.184;8.578;2023-04-25T16:20:58;7.80;;;1.33;;
23555;SDS011;11956;53.184;8.578;2023-04-25T16:23:59;6.65;;;1.40;;
23555;SDS011;11956;53.184;8.578;2023-04-25T16:26:59;9.10;;;1.75;;
23555;SDS011;11956;53.184;8.578;2023-04-25T16:30:03;9.07;;;1.43;;
23555;SDS011;11956;53.184;8.578;2023-04-25T16:33:09;8.23;;;1.20;;
23555;SDS011;11956;53.184;8.578;2023-04-25T16:36:10;6.30;;;1.20;;
23555;SDS011;11956;53.184;8.578;2023-04-25T16:39:12;8.32;;;1.10;;
23555;SDS011;11956;53.184;8.578;2023-04-25T16:42:12;6.53;;;1.50;;
23555;SDS011;11956;53.184;8.578;2023-04-25T16:45:13;8.15;;;1.52;;
23555;SDS011;11956;53.184;8.578;2023-04-25T16:48:16;9.75;;;1.00;;
23555;SDS011;11956;53.184;8.578;2023-04-25T16:51:19;14.43;;;4.53;;
23555;SDS011;11956;53.184;8.578;2023-04-25T16:54:20;7.97;;;1.30;;
23555;SDS011;11956;53.184;8.578;2023-04-25T16:57:21;5.78;;;1.35;;
23555;SDS011;11956;53.184;8.578;2023-04-25T17:00:22;12.00;;;1.75;;
23555;SDS011;11956;53.184;8.578;2023-04-25T17:03:23;9.25;;;1.77;;
23555;SDS011;11956;53.184;8.578;2023-04-25T17:06:24;8.82;;;1.65;;
23555;SDS011;11956;53.184;8.578;2023-04-25T17:09:26;10.07;;;1.83;;
23555;SDS011;11956;53.184;8.578;2023-04-25T17:12:27;10.93;;;1.60;;
23555;SDS011;11956;53.184;8.578;2023-04-25T17:15:27;8.15;;;1.33;;
23555;SDS011;11956;53.184;8.578;2023-04-25T17:18:28;7.38;;;1.50;;
23555;SDS011;11956;53.184;8.578;2023-04-25T17:21:31;5.25;;;1.25;;
23555;SDS011;11956;53.184;8.578;2023-04-25T17:24:32;6.10;;;1.27;;
23555;SDS011;11956;53.184;8.578;2023-04-25T17:27:33;7.78;;;1.67;;
23555;SDS011;11956;53.184;8.578;2023-04-25T17:30:35;5.32;;;1.33;;
23555;SDS011;11956;53.184;8.578;2023-04-25T17:33:36;7.50;;;1.73;;
23555;SDS011;11956;53.184;8.578;2023-04-25T17:36:37;6.30;;;1.58;;
23555;SDS011;11956;53.184;8.578;2023-04-25T17:39:38;6.80;;;1.50;;
23555;SDS011;11956;53.184;8.578;2023-04-25T17:42:39;11.55;;;1.60;;
23555;SDS011;11956;53.184;8.578;2023-04-25T17:45:40;11.82;;;2.17;;
23555;SDS011;11956;53.184;8.578;2023-04-25T17:48:41;7.90;;;1.33;;
23555;SDS011;11956;53.184;8.578;2023-04-25T17:51:42;6.15;;;2.10;;
23555;SDS011;11956;53.184;8.578;2023-04-25T17:54:43;9.30;;;1.50;;
23555;SDS011;11956;53.184;8.578;2023-04-25T17:57:44;9.00;;;1.73;;
23555;SDS011;11956;53.184;8.578;2023-04-25T18:00:46;11.15;;;1.90;;
23555;SDS011;11956;53.184;8.578;2023-04-25T18:03:47;6.68;;;2.13;;
23555;SDS011;11956;53.184;8.578;2023-04-25T18:06:48;9.30;;;1.50;;
23555;SDS011;11956;53.184;8.578;2023-04-25T18:09:49;10.25;;;1.55;;
23555;SDS011;11956;53.184;8.578;2023-04-25T18:12:50;15.35;;;1.77;;
23555;SDS011;11956;53.184;8.578;2023-04-25T18:15:51;11.85;;;1.92;;
23555;SDS011;11956;53.184;8.578;2023-04-25T18:18:52;7.75;;;1.60;;
23555;SDS011;11956;53.184;8.578;2023-04-25T18:21:53;13.25;;;1.75;;
23555;SDS011;11956;53.184;8.578;2023-04-25T18:24:55;9.15;;;1.95;;
23555;SDS011;11956;53.184;8.578;2023-04-25T18:27:56;7.38;;;1.95;;
23555;SDS011;11956;53.184;8.578;2023-04-25T18:30:58;8.15;;;1.20;;
23555;SDS011;11956;53.184;8.578;2023-04-25T18:33:59;9.65;;;1.75;;
23555;SDS011;11956;53.184;8.578;2023-04-25T18:37:00;6.35;;;1.50;;
23555;SDS011;11956;53.184;8.578;2023-04-25T18:40:01;10.35;;;1.90;;
23555;SDS011;11956;53.184;8.578;2023-04-25T18:43:05;9.02;;;1.63;;
23555;SDS011;11956;53.184;8.578;2023-04-25T18:46:06;6.43;;;1.58;;
23555;SDS011;11956;53.184;8.578;2023-04-25T18:49:07;15.13;;;2.28;;